Terminal Aerodrome Forecast
Issued by NWS

Home | Current Version | Previous Version | Text Only | Print | Product List | Glossary On
Versions: 1 2 3 4 5 6 7 8 9 10 11 12 13 14 15 16 17 18 19 20 21 22 23 24 25 26 27 28 29 30 31 32 33 34 35 36 37 38 39 40 41 42
000
FTUS43 KDMX 230520
TAFFOD
TAF
KFOD 230520Z 2306/2406 16003KT P6SM BKN250
     FM231500 17011KT P6SM SCT120 BKN250
     FM232200 17011KT P6SM SCT060 OVC120
     FM240100 16007KT P6SM -SHRA SCT025 OVC060=

USA.gov is the U.S. government's official web portal to all federal, state and local government web resources and services.